createdAt,value
2022-09-20T00:01:32.428Z,2.63
2022-09-20T00:04:05.344Z,2.57
2022-09-20T00:06:34.727Z,2.60
2022-09-20T00:09:03.581Z,3.03
2022-09-20T00:11:35.838Z,3.40
2022-09-20T00:14:08.572Z,2.83
2022-09-20T00:16:39.542Z,3.00
2022-09-20T00:19:08.336Z,2.80
2022-09-20T00:21:37.987Z,3.30
2022-09-20T00:24:06.852Z,2.70
2022-09-20T00:26:36.572Z,3.00
2022-09-20T00:29:05.584Z,2.87
2022-09-20T00:31:33.714Z,2.97
2022-09-20T00:34:19.357Z,2.80
2022-09-20T00:36:47.398Z,3.10
2022-09-20T00:39:16.768Z,3.00
2022-09-20T00:41:46.636Z,3.10
2022-09-20T00:44:43.780Z,3.53
2022-09-20T00:47:19.848Z,3.40
2022-09-20T00:49:48.125Z,2.90
2022-09-20T00:52:17.076Z,2.97
2022-09-20T00:54:45.475Z,3.30
2022-09-20T00:57:15.131Z,4.07
2022-09-20T00:59:48.291Z,3.10
2022-09-20T01:02:20.336Z,3.53
2022-09-20T01:04:49.991Z,3.30
2022-09-20T01:07:23.250Z,3.93
2022-09-20T01:09:52.276Z,3.33
2022-09-20T01:12:24.849Z,3.70
2022-09-20T01:14:54.587Z,3.60
2022-09-20T01:17:26.685Z,3.80
2022-09-20T01:20:09.276Z,3.77
2022-09-20T01:22:48.321Z,4.10
2022-09-20T01:25:19.236Z,3.67
2022-09-20T01:27:52.085Z,3.80
2022-09-20T01:30:22.100Z,4.40
2022-09-20T01:33:11.121Z,3.53
2022-09-20T01:35:42.475Z,3.83
2022-09-20T01:38:23.251Z,3.80
2022-09-20T01:41:00.981Z,3.57
2022-09-20T01:43:36.390Z,4.50
2022-09-20T01:46:15.290Z,3.80
2022-09-20T01:48:43.961Z,4.00
2022-09-20T01:51:53.885Z,3.97
2022-09-20T01:55:00.400Z,3.93
2022-09-20T01:58:19.050Z,3.83
2022-09-20T02:01:07.209Z,3.80
2022-09-20T02:03:58.864Z,4.63
2022-09-20T02:06:51.804Z,4.43
2022-09-20T02:09:47.493Z,4.37
2022-09-20T02:12:33.519Z,4.10
2022-09-20T02:15:10.165Z,4.53
2022-09-20T02:17:50.978Z,3.67
2022-09-20T02:20:34.375Z,3.87
2022-09-20T02:23:22.517Z,3.87
2022-09-20T02:26:07.017Z,4.47
2022-09-20T02:28:53.267Z,4.10
2022-09-20T02:31:34.911Z,3.90
2022-09-20T02:34:26.600Z,3.90
2022-09-20T02:37:13.015Z,4.00
2022-09-20T02:39:55.712Z,4.27
2022-09-20T02:42:30.949Z,4.37
2022-09-20T02:45:08.389Z,4.33
2022-09-20T02:47:39.073Z,4.10
2022-09-20T02:50:24.246Z,3.57
2022-09-20T02:53:06.901Z,4.80
2022-09-20T02:55:43.540Z,3.83
2022-09-20T02:58:26.657Z,4.07
2022-09-20T03:01:01.202Z,6.17
2022-09-20T03:03:41.257Z,3.73
2022-09-20T03:06:19.867Z,3.77
2022-09-20T03:08:55.396Z,3.87
2022-09-20T03:11:31.826Z,4.30
2022-09-20T03:14:23.365Z,4.57
2022-09-20T03:17:07.129Z,4.67
2022-09-20T03:19:50.276Z,4.67
2022-09-20T03:22:32.985Z,4.57
2022-09-20T03:25:23.259Z,4.10
2022-09-20T03:28:00.790Z,3.97
2022-09-20T03:30:42.577Z,7.97
2022-09-20T03:33:23.246Z,4.10
2022-09-20T03:36:04.250Z,4.10
2022-09-20T03:38:50.377Z,4.23
2022-09-20T03:41:42.333Z,4.03
2022-09-20T03:44:25.542Z,4.60
2022-09-20T03:47:04.940Z,4.50
2022-09-20T03:49:54.858Z,7.17
2022-09-20T03:52:51.435Z,4.17
2022-09-20T03:55:55.610Z,4.37
2022-09-20T03:58:44.571Z,4.00
2022-09-20T04:01:32.707Z,4.17
2022-09-20T04:04:09.142Z,4.50
2022-09-20T04:06:56.495Z,3.93
2022-09-20T04:09:47.543Z,4.63
2022-09-20T04:12:27.196Z,3.83
2022-09-20T04:15:07.067Z,3.77
2022-09-20T04:17:44.229Z,6.50
2022-09-20T04:20:21.922Z,4.17
2022-09-20T04:22:55.846Z,4.17
2022-09-20T04:25:30.392Z,4.33
2022-09-20T04:28:05.964Z,6.77
2022-09-20T04:30:44.082Z,4.73
2022-09-20T04:33:20.615Z,4.10
2022-09-20T04:36:35.235Z,4.10
2022-09-20T04:39:16.991Z,5.33
2022-09-20T04:42:35.838Z,4.13
2022-09-20T04:45:51.543Z,4.20
2022-09-20T04:48:57.230Z,3.80
2022-09-20T04:52:16.136Z,3.73
2022-09-20T04:55:36.369Z,4.03
2022-09-20T04:58:37.327Z,6.23
2022-09-20T05:01:40.728Z,3.60
2022-09-20T05:04:42.180Z,3.90
2022-09-20T05:07:48.603Z,7.27
2022-09-20T05:10:38.673Z,3.73
2022-09-20T05:13:22.136Z,4.27
2022-09-20T05:15:59.578Z,6.97
2022-09-20T05:19:07.669Z,4.23
2022-09-20T05:21:55.214Z,3.80
2022-09-20T05:24:40.707Z,3.90
2022-09-20T05:27:29.302Z,4.00
2022-09-20T05:30:06.652Z,3.80
2022-09-20T05:32:44.565Z,3.80
2022-09-20T05:35:24.114Z,7.83
2022-09-20T05:38:01.966Z,4.20
2022-09-20T05:40:37.164Z,4.43
2022-09-20T05:43:12.091Z,4.27
2022-09-20T05:45:58.873Z,4.90
2022-09-20T05:48:36.093Z,4.47
2022-09-20T05:51:15.540Z,3.90
2022-09-20T05:54:05.958Z,11.27
2022-09-20T05:56:46.728Z,4.07
2022-09-20T05:59:27.296Z,4.20
2022-09-20T06:02:20.517Z,3.80
2022-09-20T06:05:01.468Z,10.10
2022-09-20T06:07:46.040Z,4.67
2022-09-20T06:10:34.996Z,3.70
2022-09-20T06:13:21.455Z,4.60
2022-09-20T06:15:56.074Z,4.30
2022-09-20T06:18:29.525Z,4.30
2022-09-20T06:21:06.266Z,4.10
2022-09-20T06:23:37.162Z,7.87
2022-09-20T06:26:10.673Z,4.00
2022-09-20T06:28:42.645Z,3.97
2022-09-20T06:31:12.156Z,4.63
2022-09-20T06:33:47.245Z,8.50
2022-09-20T06:36:36.754Z,4.47
2022-09-20T06:39:35.540Z,4.87
2022-09-20T06:42:03.734Z,5.00
2022-09-20T06:44:31.940Z,4.80
2022-09-20T06:47:00.334Z,4.17
2022-09-20T06:49:29.306Z,4.40
2022-09-20T06:51:57.581Z,4.80
2022-09-20T06:54:27.984Z,4.00
2022-09-20T06:56:56.239Z,4.20
2022-09-20T06:59:24.525Z,4.37
2022-09-20T07:01:52.791Z,4.50
2022-09-20T07:04:22.209Z,4.23
2022-09-20T07:06:50.263Z,4.00
2022-09-20T07:09:18.540Z,3.97
2022-09-20T07:11:48.052Z,4.80
2022-09-20T07:14:16.379Z,4.43
2022-09-20T07:16:44.578Z,4.40
2022-09-20T07:19:12.775Z,4.77
2022-09-20T07:21:40.856Z,6.43
2022-09-20T07:24:08.938Z,4.40
2022-09-20T07:26:37.352Z,4.17
2022-09-20T07:29:06.879Z,4.93
2022-09-20T07:31:34.920Z,6.90
2022-09-20T07:34:03.067Z,9.57
2022-09-20T07:36:31.090Z,4.00
2022-09-20T07:38:59.162Z,4.30
2022-09-20T07:41:29.445Z,3.80
2022-09-20T07:44:17.676Z,5.40
2022-09-20T07:46:48.759Z,4.30
2022-09-20T07:49:17.440Z,5.97
2022-09-20T07:51:45.749Z,5.33
2022-09-20T07:54:13.854Z,4.57
2022-09-20T07:56:42.196Z,6.70
2022-09-20T07:59:11.396Z,6.40
2022-09-20T08:01:39.638Z,4.70
2022-09-20T08:04:09.738Z,4.87
2022-09-20T08:06:38.659Z,4.33
2022-09-20T08:09:10.924Z,6.07
2022-09-20T08:11:40.683Z,4.43
2022-09-20T08:14:09.518Z,5.10
2022-09-20T08:16:41.031Z,4.20
2022-09-20T08:19:15.498Z,4.57
2022-09-20T08:21:44.481Z,7.63
2022-09-20T08:24:13.063Z,4.90
2022-09-20T08:26:41.628Z,4.60
2022-09-20T08:29:09.993Z,4.70
2022-09-20T08:31:42.401Z,4.80
2022-09-20T08:34:15.263Z,3.93
2022-09-20T08:36:46.896Z,4.00
2022-09-20T08:42:15.142Z,3.90
2022-09-20T08:45:00.449Z,4.70
2022-09-20T08:47:32.515Z,4.00
2022-09-20T08:50:11.561Z,4.40
2022-09-20T08:52:42.499Z,5.10
2022-09-20T08:55:17.505Z,3.87
2022-09-20T08:57:50.370Z,4.27
2022-09-20T09:00:21.137Z,4.43
2022-09-20T09:02:51.929Z,4.63
2022-09-20T09:05:33.316Z,4.40
2022-09-20T09:08:04.622Z,4.27
2022-09-20T09:10:43.412Z,4.47
2022-09-20T09:13:19.757Z,4.70
2022-09-20T09:15:52.894Z,4.70
2022-09-20T09:18:21.140Z,4.13
2022-09-20T09:20:53.010Z,4.37
2022-09-20T09:23:27.257Z,4.10
2022-09-20T09:25:56.682Z,4.47
2022-09-20T09:28:31.520Z,4.83
2022-09-20T09:31:16.233Z,4.77
2022-09-20T09:33:47.642Z,4.70
2022-09-20T09:36:19.183Z,4.70
2022-09-20T09:38:48.205Z,4.97
2022-09-20T09:41:26.563Z,4.67
2022-09-20T09:44:06.683Z,4.23
2022-09-20T09:46:36.887Z,4.23
2022-09-20T09:49:12.056Z,4.90
2022-09-20T09:51:44.299Z,4.73
2022-09-20T09:54:19.877Z,4.53
2022-09-20T09:57:06.142Z,5.03
2022-09-20T09:59:45.510Z,4.37
2022-09-20T10:02:30.931Z,4.20
2022-09-20T10:05:05.676Z,4.77
2022-09-20T10:07:45.046Z,4.57
2022-09-20T10:10:27.563Z,4.90
2022-09-20T10:13:11.032Z,4.50
2022-09-20T10:15:43.045Z,4.37
2022-09-20T10:18:26.765Z,4.50
2022-09-20T10:21:08.119Z,4.27
2022-09-20T10:24:03.041Z,4.57
2022-09-20T10:26:49.068Z,4.73
2022-09-20T10:29:26.374Z,4.30
2022-09-20T10:32:02.074Z,5.00
2022-09-20T10:35:14.355Z,5.43
2022-09-20T10:37:55.235Z,5.37
2022-09-20T10:40:48.467Z,5.07
2022-09-20T10:43:29.390Z,5.73
2022-09-20T10:46:30.705Z,5.17
2022-09-20T10:49:04.880Z,5.20
2022-09-20T10:51:43.318Z,4.60
2022-09-20T10:54:27.438Z,5.50
2022-09-20T10:57:10.086Z,4.23
2022-09-20T10:59:48.341Z,4.17
2022-09-20T11:02:37.190Z,4.27
2022-09-20T11:05:21.421Z,3.57
2022-09-20T11:08:03.850Z,4.60
2022-09-20T11:10:37.472Z,4.07
2022-09-20T11:13:12.478Z,3.87
2022-09-20T11:15:45.910Z,2.97
2022-09-20T11:18:23.266Z,3.20
2022-09-20T11:20:58.849Z,3.37
2022-09-20T11:23:35.023Z,2.80
2022-09-20T11:26:13.321Z,3.40
2022-09-20T11:28:49.126Z,3.73
2022-09-20T11:31:24.852Z,3.30
2022-09-20T11:33:57.776Z,3.37
2022-09-20T11:36:32.612Z,3.00
2022-09-20T11:39:04.871Z,3.37
2022-09-20T11:41:33.574Z,3.07
2022-09-20T11:44:08.212Z,2.80
2022-09-20T11:46:43.619Z,3.20
2022-09-20T11:49:17.813Z,3.47
2022-09-20T11:52:22.702Z,3.23
2022-09-20T11:55:08.491Z,2.97
2022-09-20T11:57:36.696Z,2.77
2022-09-20T12:00:10.240Z,3.33
2022-09-20T12:02:46.625Z,2.70
2022-09-20T12:05:28.028Z,2.80
2022-09-20T12:07:57.811Z,2.63
2022-09-20T12:10:28.232Z,3.00
2022-09-20T12:13:01.113Z,2.60
2022-09-20T12:15:33.521Z,2.70
2022-09-20T12:18:27.486Z,2.50
2022-09-20T12:21:16.457Z,2.47
2022-09-20T12:24:21.995Z,2.10
2022-09-20T12:26:52.232Z,1.97
2022-09-20T12:30:03.971Z,2.10
2022-09-20T12:32:42.629Z,2.20
2022-09-20T12:35:56.498Z,2.60
2022-09-20T12:38:49.470Z,2.57
2022-09-20T12:41:28.277Z,2.30
2022-09-20T12:44:04.038Z,2.60
2022-09-20T12:46:51.125Z,2.70
2022-09-20T12:49:58.289Z,2.30
2022-09-20T12:52:48.330Z,2.33
2022-09-20T12:55:31.629Z,2.40
2022-09-20T12:58:06.226Z,2.10
2022-09-20T13:00:39.614Z,2.53
2022-09-20T13:03:24.691Z,3.20
2022-09-20T13:06:25.154Z,2.80
2022-09-20T13:08:59.379Z,2.60
2022-09-20T13:11:31.817Z,2.93
2022-09-20T13:14:04.923Z,2.30
2022-09-20T13:16:47.656Z,2.50
2022-09-20T13:19:18.757Z,2.50
2022-09-20T13:21:56.494Z,2.43
2022-09-20T13:24:27.416Z,2.60
2022-09-20T13:27:01.902Z,2.60
2022-09-20T13:29:35.448Z,2.70
2022-09-20T13:32:17.546Z,2.10
2022-09-20T13:34:46.894Z,3.10
2022-09-20T13:37:23.869Z,2.80
2022-09-20T13:39:56.133Z,2.80
2022-09-20T13:42:24.658Z,2.80
2022-09-20T13:44:53.545Z,2.20
2022-09-20T13:47:27.603Z,2.30
2022-09-20T13:50:02.808Z,2.63
2022-09-20T13:52:33.438Z,2.83
2022-09-20T13:55:01.694Z,2.67
2022-09-20T13:57:31.533Z,2.30
2022-09-20T14:00:01.799Z,2.20
2022-09-20T14:02:32.998Z,2.70
2022-09-20T14:05:03.413Z,2.60
2022-09-20T14:07:36.515Z,2.50
2022-09-20T14:10:05.293Z,2.60
2022-09-20T14:12:36.110Z,2.50
2022-09-20T14:15:10.056Z,2.53
2022-09-20T14:17:38.568Z,2.43
2022-09-20T14:20:08.416Z,2.00
2022-09-20T14:22:38.110Z,2.28
2022-09-20T14:25:25.527Z,2.25
2022-09-20T14:28:08.450Z,2.35
2022-09-20T14:30:38.214Z,1.92
2022-09-20T14:33:16.262Z,2.47
2022-09-20T14:35:49.796Z,2.28
2022-09-20T14:38:24.702Z,2.50
2022-09-20T14:40:53.146Z,1.95
2022-09-20T14:43:28.032Z,2.13
2022-09-20T14:45:58.692Z,2.60
2022-09-20T14:48:36.460Z,3.13
2022-09-20T14:51:25.252Z,2.75
2022-09-20T14:54:15.306Z,2.30
2022-09-20T14:56:49.537Z,2.05
2022-09-20T14:59:27.342Z,2.13
2022-09-20T15:02:05.190Z,2.30
2022-09-20T15:04:35.485Z,2.25
2022-09-20T15:07:04.638Z,2.08
2022-09-20T15:09:35.381Z,2.30
2022-09-20T15:12:05.763Z,2.20
2022-09-20T15:14:37.934Z,2.47
2022-09-20T15:17:06.784Z,2.28
2022-09-20T15:19:34.999Z,2.35
2022-09-20T15:22:03.362Z,2.20
2022-09-20T15:24:31.493Z,2.15
2022-09-20T15:27:01.111Z,2.30
2022-09-20T15:29:29.568Z,2.50
2022-09-20T15:31:58.061Z,2.40
2022-09-20T15:34:26.099Z,2.10
2022-09-20T15:36:54.757Z,2.38
2022-09-20T15:39:24.639Z,2.40
2022-09-20T15:41:53.242Z,2.35
2022-09-20T15:44:22.831Z,2.13
2022-09-20T15:46:53.420Z,2.10
2022-09-20T15:49:22.329Z,2.05
2022-09-20T15:51:50.650Z,1.83
2022-09-20T15:54:18.768Z,1.92
2022-09-20T15:56:46.989Z,1.80
2022-09-20T15:59:16.481Z,1.90
2022-09-20T16:01:48.219Z,1.67
2022-09-20T16:04:19.397Z,2.10
2022-09-20T16:06:50.298Z,1.70
2022-09-20T16:09:19.504Z,1.90
2022-09-20T16:11:48.301Z,2.00
2022-09-20T16:14:16.742Z,1.80
2022-09-20T16:16:46.278Z,2.10
2022-09-20T16:19:20.800Z,2.10
2022-09-20T16:21:57.742Z,1.60
2022-09-20T16:24:27.397Z,2.00
2022-09-20T16:26:55.971Z,2.30
2022-09-20T16:29:25.843Z,2.10
2022-09-20T16:31:57.725Z,2.00
2022-09-20T16:34:30.321Z,2.03
2022-09-20T16:36:59.828Z,1.90
2022-09-20T16:39:28.822Z,1.83
2022-09-20T16:42:00.047Z,1.80
2022-09-20T16:44:28.063Z,1.50
2022-09-20T16:46:57.638Z,1.57
2022-09-20T16:49:29.586Z,1.67
2022-09-20T16:51:57.667Z,1.73
2022-09-20T16:54:31.027Z,1.50
2022-09-20T16:57:00.063Z,1.60
2022-09-20T16:59:28.143Z,1.40
2022-09-20T17:01:58.171Z,1.47
2022-09-20T17:04:26.423Z,1.40
2022-09-20T17:06:54.559Z,1.90
2022-09-20T17:09:22.477Z,1.60
2022-09-20T17:11:52.089Z,1.50
2022-09-20T17:14:22.312Z,1.37
2022-09-20T17:16:51.270Z,1.43
2022-09-20T17:19:22.029Z,1.50
2022-09-20T17:21:51.509Z,1.30
2022-09-20T17:24:20.438Z,1.33
2022-09-20T17:26:49.028Z,1.58
2022-09-20T17:29:18.649Z,1.50
2022-09-20T17:31:54.139Z,1.30
2022-09-20T17:34:26.034Z,1.20
2022-09-20T17:36:55.844Z,1.40
2022-09-20T17:39:24.422Z,1.30
2022-09-20T17:41:52.930Z,1.43
2022-09-20T17:44:21.278Z,1.40
2022-09-20T17:46:51.121Z,1.50
2022-09-20T17:49:20.604Z,1.30
2022-09-20T17:51:52.001Z,1.70
2022-09-20T17:54:20.965Z,1.60
2022-09-20T17:56:51.083Z,1.30
2022-09-20T17:59:21.544Z,2.20
2022-09-20T18:01:51.306Z,2.00
2022-09-20T18:04:21.060Z,1.70
2022-09-20T18:06:52.461Z,1.50
2022-09-20T18:09:22.890Z,2.23
2022-09-20T18:11:53.107Z,1.80
2022-09-20T18:14:23.505Z,6.57
2022-09-20T18:16:53.546Z,10.23
2022-09-20T18:19:23.010Z,5.60
2022-09-20T18:21:52.841Z,3.00
2022-09-20T18:24:20.839Z,7.97
2022-09-20T18:26:48.802Z,5.00
2022-09-20T18:29:19.240Z,2.83
2022-09-20T18:31:49.193Z,5.60
2022-09-20T18:34:18.878Z,8.10
2022-09-20T18:36:53.186Z,3.27
2022-09-20T18:39:23.247Z,3.50
2022-09-20T18:41:52.441Z,3.17
2022-09-20T18:44:21.095Z,3.67
2022-09-20T18:46:49.652Z,4.97
2022-09-20T18:49:17.850Z,4.10
2022-09-20T18:51:47.458Z,5.03
2022-09-20T18:54:15.911Z,5.30
2022-09-20T18:56:48.920Z,4.60
2022-09-20T18:59:18.932Z,3.30
2022-09-20T19:02:13.613Z,3.27
2022-09-20T19:05:17.445Z,4.70
2022-09-20T19:07:55.333Z,5.80
2022-09-20T19:10:30.054Z,4.57
2022-09-20T19:13:06.489Z,4.97
2022-09-20T19:15:57.942Z,5.27
2022-09-20T19:19:07.535Z,3.63
2022-09-20T19:21:42.868Z,6.80
2022-09-20T19:24:24.264Z,13.47
2022-09-20T19:26:53.102Z,9.63
2022-09-20T19:29:25.371Z,12.20
2022-09-20T19:31:55.766Z,11.07
2022-09-20T19:34:25.809Z,8.73
2022-09-20T19:37:03.214Z,8.40
2022-09-20T19:39:45.475Z,8.37
2022-09-20T19:42:21.347Z,8.33
2022-09-20T19:45:02.013Z,9.57
2022-09-20T19:47:38.516Z,6.27
2022-09-20T19:50:17.218Z,7.03
2022-09-20T19:52:46.334Z,10.30
2022-09-20T19:55:15.640Z,10.20
2022-09-20T19:57:47.105Z,7.37
2022-09-20T20:00:19.980Z,9.43
2022-09-20T20:02:48.891Z,9.67
2022-09-20T20:05:19.036Z,8.30
2022-09-20T20:07:55.885Z,7.37
2022-09-20T20:10:29.639Z,6.57
2022-09-20T20:13:04.394Z,5.17
2022-09-20T20:15:43.611Z,4.93
2022-09-20T20:18:23.025Z,5.43
2022-09-20T20:20:53.935Z,4.30
2022-09-20T20:23:47.879Z,4.00
2022-09-20T20:26:22.240Z,7.37
2022-09-20T20:28:50.834Z,8.43
2022-09-20T20:31:20.576Z,6.00
2022-09-20T20:33:48.560Z,6.87
2022-09-20T20:36:18.083Z,5.90
2022-09-20T20:38:50.007Z,6.53
2022-09-20T20:41:20.502Z,4.23
2022-09-20T20:43:49.780Z,3.90
2022-09-20T20:46:20.218Z,3.80
2022-09-20T20:48:48.551Z,4.97
2022-09-20T20:51:18.882Z,3.77
2022-09-20T20:53:49.191Z,3.77
2022-09-20T20:56:19.468Z,3.30
2022-09-20T20:58:49.500Z,4.23
2022-09-20T21:01:19.676Z,3.73
2022-09-20T21:03:50.847Z,3.57
2022-09-20T21:06:19.315Z,3.80
2022-09-20T21:08:50.067Z,3.73
2022-09-20T21:11:23.485Z,3.60
2022-09-20T21:13:51.674Z,3.70
2022-09-20T21:16:21.613Z,4.50
2022-09-20T21:18:52.021Z,3.97
2022-09-20T21:21:22.416Z,4.23
2022-09-20T21:23:52.609Z,3.73
2022-09-20T21:26:22.064Z,4.53
2022-09-20T21:28:53.269Z,4.10
2022-09-20T21:31:22.827Z,3.93
2022-09-20T21:33:52.300Z,4.73
2022-09-20T21:36:23.038Z,4.00
2022-09-20T21:38:51.187Z,3.60
2022-09-20T21:41:22.193Z,3.60
2022-09-20T21:43:53.154Z,4.80
2022-09-20T21:46:22.551Z,4.27
2022-09-20T21:48:52.362Z,4.20
2022-09-20T21:51:21.797Z,3.60
2022-09-20T21:53:54.040Z,3.63
2022-09-20T21:56:22.091Z,3.60
2022-09-20T21:58:50.099Z,3.67
2022-09-20T22:01:20.033Z,3.20
2022-09-20T22:03:49.388Z,4.40
2022-09-20T22:06:20.978Z,3.63
2022-09-20T22:08:51.861Z,3.33
2022-09-20T22:11:21.991Z,3.10
2022-09-20T22:13:51.831Z,3.50
2022-09-20T22:16:21.498Z,3.90
2022-09-20T22:18:49.884Z,4.10
2022-09-20T22:21:21.776Z,4.20
2022-09-20T22:23:51.040Z,3.70
2022-09-20T22:26:22.166Z,3.63
2022-09-20T22:28:51.691Z,3.53
2022-09-20T22:31:21.906Z,3.83
2022-09-20T22:33:51.557Z,3.73
2022-09-20T22:36:22.672Z,3.63
2022-09-20T22:38:51.134Z,3.40
2022-09-20T22:41:20.819Z,3.63
2022-09-20T22:43:48.969Z,3.07
2022-09-20T22:46:18.344Z,3.83
2022-09-20T22:48:46.810Z,3.73
2022-09-20T22:51:16.716Z,5.17
2022-09-20T22:53:47.571Z,3.30
2022-09-20T22:56:17.885Z,3.90
2022-09-20T22:58:48.008Z,3.70
2022-09-20T23:01:17.940Z,5.87
2022-09-20T23:03:47.953Z,4.10
2022-09-20T23:06:17.420Z,3.70
2022-09-20T23:08:46.797Z,3.50
2022-09-20T23:11:16.507Z,6.73
2022-09-20T23:13:45.186Z,3.90
2022-09-20T23:16:15.132Z,3.70
2022-09-20T23:18:43.303Z,5.00
2022-09-20T23:21:11.790Z,4.60
2022-09-20T23:23:43.347Z,4.40
2022-09-20T23:26:14.729Z,4.03
2022-09-20T23:28:44.545Z,5.20
2022-09-20T23:31:14.519Z,4.90
2022-09-20T23:33:48.945Z,4.07
2022-09-20T23:36:18.907Z,4.50
2022-09-20T23:38:47.645Z,4.57
2022-09-20T23:41:20.776Z,4.47
2022-09-20T23:43:49.802Z,4.23
2022-09-20T23:46:19.955Z,4.57
2022-09-20T23:48:48.267Z,4.50
2022-09-20T23:51:18.348Z,4.60
2022-09-20T23:53:46.396Z,4.87
2022-09-20T23:56:16.495Z,3.93
2022-09-20T23:58:45.553Z,5.10
